Time;durP1;ratioP1;P1;durP2;ratioP2;P2;SDS_P1;SDS_P2;PMS_P1;PMS_P2;Temp;Humidity;BMP_temperature;BMP_pressure;BME280_temperature;BME280_humidity;BME280_pressure;Samples;Min_cycle;Max_cycle;Signal;HPM_P1;HPM_P2
2023/06/20 00:00:55;;;;;;;13.00;9.77;;;;;;;14.94;100.00;101017.22;5009159;28;20030;-79
2023/06/20 00:03:21;;;;;;;12.47;9.70;;;;;;;14.88;100.00;101010.69;4992209;28;20042;-79
2023/06/20 00:05:46;;;;;;;11.97;9.83;;;;;;;14.89;100.00;101014.22;4991055;28;20030;-79
2023/06/20 00:08:11;;;;;;;14.80;10.87;;;;;;;14.83;100.00;101009.59;5018847;28;20048;-79
2023/06/20 00:10:37;;;;;;;20.00;10.20;;;;;;;14.83;100.00;101017.66;5009628;28;20128;-79
2023/06/20 00:13:03;;;;;;;15.03;9.90;;;;;;;14.77;100.00;101020.06;5016326;28;20030;-79
2023/06/20 00:15:29;;;;;;;15.88;11.52;;;;;;;14.78;100.00;101043.22;5022642;28;20035;-79
2023/06/20 00:17:56;;;;;;;13.55;10.23;;;;;;;14.68;100.00;101050.72;4994379;28;20085;-79
2023/06/20 00:20:21;;;;;;;14.45;10.07;;;;;;;14.57;100.00;101027.81;5028882;28;20030;-79
2023/06/20 00:22:50;;;;;;;15.87;9.87;;;;;;;14.50;100.00;101020.63;5019663;28;20544;-79
2023/06/20 00:25:16;;;;;;;13.88;9.80;;;;;;;14.49;100.00;101010.88;5011353;28;20045;-78
2023/06/20 00:27:42;;;;;;;15.45;10.27;;;;;;;14.48;100.00;101017.28;4998319;28;20116;-78
2023/06/20 00:30:08;;;;;;;12.23;9.87;;;;;;;14.46;100.00;101020.16;5005978;28;20065;-79
2023/06/20 00:32:33;;;;;;;13.30;10.15;;;;;;;14.45;100.00;101021.16;4995884;28;20025;-78
2023/06/20 00:34:58;;;;;;;15.40;10.70;;;;;;;14.41;100.00;101016.34;5019255;28;20033;-80
2023/06/20 00:37:25;;;;;;;12.27;10.10;;;;;;;14.36;100.00;101012.34;5028905;28;20033;-79
2023/06/20 00:39:50;;;;;;;14.35;10.52;;;;;;;14.33;100.00;101003.81;5013082;28;20071;-79
2023/06/20 00:42:20;;;;;;;18.67;10.23;;;;;;;14.33;100.00;101010.03;5019282;28;20108;-78
2023/06/20 00:44:49;;;;;;;19.02;10.80;;;;;;;14.24;100.00;100994.16;4995393;28;20038;-79
2023/06/20 00:47:16;;;;;;;15.52;10.88;;;;;;;14.20;100.00;100998.22;5021608;28;20032;-79
2023/06/20 00:49:43;;;;;;;18.90;11.45;;;;;;;14.24;100.00;101008.41;5004486;28;20418;-79
2023/06/20 00:52:09;;;;;;;17.63;10.93;;;;;;;14.24;100.00;101027.22;5025046;28;20139;-79
2023/06/20 00:54:35;;;;;;;16.45;11.32;;;;;;;14.11;100.00;101014.38;5024799;28;20036;-79
2023/06/20 00:57:01;;;;;;;15.50;10.63;;;;;;;14.07;100.00;101005.03;4991035;28;20375;-79
2023/06/20 00:59:27;;;;;;;14.65;10.40;;;;;;;14.10;100.00;101011.88;5012763;28;20371;-79
2023/06/20 01:01:53;;;;;;;13.13;10.13;;;;;;;14.10;100.00;101010.03;5031135;28;20048;-79
2023/06/20 01:04:21;;;;;;;13.35;10.45;;;;;;;14.03;100.00;101013.63;5015220;28;20048;-79
2023/06/20 01:07:03;;;;;;;20.25;12.65;;;;;;;14.04;100.00;101012.59;5023769;28;20033;-79
2023/06/20 01:09:48;;;;;;;15.30;11.07;;;;;;;13.99;100.00;101029.22;5006036;28;20034;-79
2023/06/20 01:12:21;;;;;;;23.98;10.90;;;;;;;13.93;100.00;101014.69;4999788;28;20037;-79
2023/06/20 01:15:00;;;;;;;13.15;9.75;;;;;;;13.88;100.00;101010.84;5011048;28;20033;-79
2023/06/20 01:17:40;;;;;;;14.50;10.18;;;;;;;13.83;100.00;101002.50;5013101;28;20037;-79
2023/06/20 01:20:25;;;;;;;15.13;11.73;;;;;;;13.86;100.00;101003.00;5005440;28;20038;-79
2023/06/20 01:22:59;;;;;;;15.00;11.77;;;;;;;13.82;100.00;101000.84;5005887;28;20065;-79
2023/06/20 01:25:28;;;;;;;13.77;11.18;;;;;;;13.88;100.00;101021.59;5008778;28;20041;-79
2023/06/20 01:28:18;;;;;;;14.05;10.90;;;;;;;13.79;100.00;101022.66;5005560;28;20034;-79
2023/06/20 01:31:03;;;;;;;17.50;11.40;;;;;;;13.72;100.00;101015.31;5005279;28;20037;-79
2023/06/20 01:33:35;;;;;;;17.27;11.85;;;;;;;13.66;100.00;101001.78;5021731;28;20033;-79
2023/06/20 01:36:04;;;;;;;17.35;11.90;;;;;;;13.66;100.00;100996.41;5016052;28;20037;-79
2023/06/20 01:38:32;;;;;;;15.43;10.90;;;;;;;13.66;100.00;101001.78;5000113;28;20029;-78
2023/06/20 01:41:00;;;;;;;22.30;12.93;;;;;;;13.60;100.00;100991.72;5008381;28;20030;-79
2023/06/20 01:43:30;;;;;;;18.92;11.23;;;;;;;13.61;100.00;100993.41;5006263;28;20035;-78
2023/06/20 01:45:56;;;;;;;13.52;11.52;;;;;;;13.64;100.00;101001.09;4991767;28;20065;-79
2023/06/20 01:48:24;;;;;;;15.02;11.05;;;;;;;13.60;100.00;101005.16;5007465;28;20119;-79
2023/06/20 01:50:52;;;;;;;18.15;12.18;;;;;;;13.57;100.00;101006.34;5020528;28;20049;-79
2023/06/20 01:53:19;;;;;;;16.08;11.85;;;;;;;13.48;100.00;100996.66;4991410;28;20022;-79
2023/06/20 01:55:47;;;;;;;14.80;11.15;;;;;;;13.47;100.00;100985.09;4991423;28;20030;-79
2023/06/20 01:58:14;;;;;;;16.83;11.90;;;;;;;13.45;100.00;100981.75;5026159;28;20065;-79
2023/06/20 02:00:40;;;;;;;;;;;;;;;13.49;100.00;100982.25;5021300;28;20099;-79
2023/06/20 02:03:08;;;;;;;17.45;11.88;;;;;;;13.48;100.00;100986.75;5024352;28;19952;-79
2023/06/20 02:05:34;;;;;;;15.93;11.90;;;;;;;13.46;100.00;100988.81;5023511;28;20033;-79
2023/06/20 02:08:01;;;;;;;19.45;12.32;;;;;;;13.44;100.00;100990.00;4991107;28;20088;-78
2023/06/20 02:10:27;;;;;;;17.08;12.13;;;;;;;13.41;100.00;101007.25;5022501;28;20052;-79
2023/06/20 02:12:54;;;;;;;17.27;12.57;;;;;;;13.34;100.00;101008.13;4989693;28;20294;-79
2023/06/20 02:15:22;;;;;;;17.88;11.57;;;;;;;13.27;100.00;101003.47;4994798;28;20034;-78
2023/06/20 02:17:49;;;;;;;22.23;13.32;;;;;;;13.19;100.00;100987.38;4993617;28;20021;-79
2023/06/20 02:20:15;;;;;;;18.07;11.07;;;;;;;13.14;100.00;100981.72;5027141;28;20045;-79
2023/06/20 02:22:44;;;;;;;16.52;11.63;;;;;;;13.17;100.00;100988.56;5003562;28;20034;-79
2023/06/20 02:25:18;;;;;;;16.35;11.98;;;;;;;13.09;100.00;100979.53;5010296;28;20047;-79
2023/06/20 02:27:47;;;;;;;16.58;11.98;;;;;;;13.08;100.00;100977.03;5002989;28;20033;-79
2023/06/20 02:30:14;;;;;;;15.75;11.57;;;;;;;13.07;100.00;100983.41;5022241;28;20025;-79
2023/06/20 02:32:42;;;;;;;17.17;11.73;;;;;;;13.06;100.00;100974.53;5020724;28;20084;-78
2023/06/20 02:35:10;;;;;;;13.27;11.07;;;;;;;13.02;100.00;100973.19;5035365;28;20117;-79
2023/06/20 02:37:39;;;;;;;16.13;12.25;;;;;;;13.06;100.00;100984.41;5020909;28;20080;-79
2023/06/20 02:40:06;;;;;;;17.52;12.27;;;;;;;13.00;100.00;100985.94;5011031;28;20018;-78
2023/06/20 02:42:31;;;;;;;17.33;12.05;;;;;;;13.01;100.00;100992.13;5022285;28;20113;-79
2023/06/20 02:44:57;;;;;;;17.27;12.05;;;;;;;13.07;100.00;101000.31;5009964;28;20021;-78
2023/06/20 02:47:33;;;;;;;17.27;12.77;;;;;;;13.08;100.00;100990.44;4999264;28;20124;-79
2023/06/20 02:50:01;;;;;;;16.98;12.15;;;;;;;13.04;100.00;100995.31;5008857;28;20056;-79
2023/06/20 02:52:50;;;;;;;20.02;14.85;;;;;;;13.07;100.00;100997.63;5019848;28;20022;-79
2023/06/20 02:55:34;;;;;;;16.50;12.35;;;;;;;13.08;100.00;101003.81;5013324;28;20057;-78
2023/06/20 02:58:01;;;;;;;19.73;13.20;;;;;;;13.07;100.00;101005.69;5018058;28;20034;-79
2023/06/20 03:00:26;;;;;;;;;;;;;;;13.13;100.00;101025.59;5004955;28;20030;-78
2023/06/20 03:02:58;;;;;;;;;;;;;;;13.15;100.00;101034.28;5024973;28;19912;-79
2023/06/20 03:05:26;;;;;;;20.98;15.20;;;;;;;13.17;100.00;101044.84;4992981;28;19919;-78
2023/06/20 03:07:54;;;;;;;19.20;13.63;;;;;;;13.01;100.00;101027.81;5024060;28;20116;-78
2023/06/20 03:10:21;;;;;;;18.25;13.20;;;;;;;13.04;100.00;101030.16;5026585;28;20033;-78
2023/06/20 03:12:46;;;;;;;19.85;14.10;;;;;;;13.01;100.00;101011.72;5010069;28;20120;-78
2023/06/20 03:15:11;;;;;;;17.27;12.90;;;;;;;12.96;100.00;101000.69;5029359;28;20080;-79
2023/06/20 03:17:37;;;;;;;19.43;13.37;;;;;;;12.99;100.00;100991.47;5022794;28;20360;-79
2023/06/20 03:20:05;;;;;;;;;;;;;;;13.12;100.00;100993.63;5020989;28;20046;-78
2023/06/20 03:22:31;;;;;;;25.27;15.68;;;;;;;13.15;100.00;101001.31;5015297;28;19910;-79
2023/06/20 03:24:56;;;;;;;25.20;17.83;;;;;;;13.20;100.00;100997.06;5034509;28;20403;-78
2023/06/20 03:27:22;;;;;;;26.60;16.97;;;;;;;13.25;100.00;101005.47;5009671;28;20698;-78
2023/06/20 03:29:47;;;;;;;24.03;16.47;;;;;;;13.28;100.00;101013.19;5016579;28;20038;-79
2023/06/20 03:32:13;;;;;;;26.17;16.20;;;;;;;13.26;100.00;101019.69;5020819;28;20116;-78
2023/06/20 03:34:38;;;;;;;22.10;16.10;;;;;;;13.20;100.00;101023.06;4994629;28;20076;-78
2023/06/20 03:37:03;;;;;;;21.85;15.20;;;;;;;13.24;100.00;101019.03;5009106;28;20782;-78
2023/06/20 03:39:29;;;;;;;24.57;17.33;;;;;;;13.25;100.00;101018.00;4993365;28;20053;-78
2023/06/20 03:41:55;;;;;;;21.15;13.90;;;;;;;13.21;100.00;101004.13;5009861;28;20323;-78
2023/06/20 03:44:21;;;;;;;20.63;14.95;;;;;;;13.28;100.00;101013.19;5011331;28;20034;-78
2023/06/20 03:46:46;;;;;;;37.00;22.93;;;;;;;13.53;100.00;101029.16;5023031;28;20030;-78
2023/06/20 03:49:12;;;;;;;24.00;17.20;;;;;;;13.66;100.00;101053.56;5019137;28;20042;-78
2023/06/20 03:51:39;;;;;;;24.63;15.65;;;;;;;13.66;100.00;101044.69;5020544;28;20032;-78
2023/06/20 03:54:05;;;;;;;21.98;16.23;;;;;;;13.73;100.00;101043.81;5002067;28;20048;-78
2023/06/20 03:56:30;;;;;;;25.00;16.40;;;;;;;13.90;100.00;101046.41;5026320;28;20034;-78
2023/06/20 03:58:56;;;;;;;23.05;15.20;;;;;;;14.03;100.00;101052.03;5019847;28;20049;-78
2023/06/20 04:01:24;;;;;;;21.17;15.70;;;;;;;14.17;100.00;101058.50;5014378;28;20124;-78
2023/06/20 04:03:51;;;;;;;23.30;16.38;;;;;;;14.29;100.00;101045.47;5023396;28;20049;-78
2023/06/20 04:06:16;;;;;;;23.23;16.23;;;;;;;14.42;100.00;101039.50;5027314;28;20045;-78
2023/06/20 04:08:45;;;;;;;22.48;15.23;;;;;;;14.62;100.00;101040.69;5015217;28;20029;-79
2023/06/20 04:11:11;;;;;;;25.10;18.05;;;;;;;14.76;100.00;101034.50;5013271;28;20565;-78
2023/06/20 04:13:36;;;;;;;;;;;;;;;14.95;100.00;101033.13;5020472;28;20405;-79
2023/06/20 04:16:02;;;;;;;;;;;;;;;15.10;100.00;101024.25;5015127;28;19913;-78
2023/06/20 04:18:27;;;;;;;29.30;18.73;;;;;;;15.19;100.00;101026.69;5024357;28;19917;-78
2023/06/20 04:20:55;;;;;;;30.30;18.25;;;;;;;15.29;100.00;101022.84;5018142;28;20036;-78
2023/06/20 04:23:20;;;;;;;25.57;18.60;;;;;;;15.41;100.00;101019.50;5020626;28;20128;-78
2023/06/20 04:25:46;;;;;;;26.63;18.67;;;;;;;15.54;100.00;101034.97;5014979;28;20037;-78
2023/06/20 04:28:11;;;;;;;30.23;21.50;;;;;;;15.39;100.00;101050.31;5012495;28;20044;-78
2023/06/20 04:30:45;;;;;;;28.15;19.67;;;;;;;15.43;100.00;101065.06;5013690;28;20033;-79
2023/06/20 04:33:11;;;;;;;35.13;22.43;;;;;;;15.52;100.00;101080.09;5016908;28;20064;-78
2023/06/20 04:35:37;;;;;;;30.17;21.70;;;;;;;15.45;100.00;101087.22;5021053;28;20057;-78
2023/06/20 04:38:03;;;;;;;34.88;22.20;;;;;;;15.50;100.00;101092.03;5015217;28;20040;-78
2023/06/20 04:40:29;;;;;;;32.15;21.67;;;;;;;15.56;100.00;101092.13;5020719;28;20025;-79
2023/06/20 04:42:55;;;;;;;28.10;21.10;;;;;;;15.73;100.00;101090.13;5027900;28;20045;-78
2023/06/20 04:45:23;;;;;;;27.35;18.98;;;;;;;16.00;100.00;101093.94;5015475;28;20501;-79
2023/06/20 04:47:50;;;;;;;32.17;20.27;;;;;;;16.18;100.00;101084.63;5003208;28;20041;-79
2023/06/20 04:50:16;;;;;;;25.55;19.00;;;;;;;16.47;100.00;101078.28;5008773;28;20030;-77
2023/06/20 04:52:41;;;;;;;28.77;19.52;;;;;;;16.67;100.00;101062.28;5003358;28;20122;-79
2023/06/20 04:55:07;;;;;;;29.00;17.70;;;;;;;16.58;100.00;101044.59;5015755;28;20766;-78
2023/06/20 04:57:33;;;;;;;24.85;18.42;;;;;;;16.80;100.00;101040.81;5011320;28;20034;-79
2023/06/20 04:59:59;;;;;;;28.10;18.55;;;;;;;16.82;100.00;101027.16;5026276;28;20032;-79
2023/06/20 05:02:26;;;;;;;24.17;17.45;;;;;;;17.21;100.00;101034.66;5023958;28;20083;-78
2023/06/20 05:04:51;;;;;;;24.30;17.70;;;;;;;17.42;100.00;101022.09;5024760;28;20014;-79
2023/06/20 05:07:17;;;;;;;22.40;16.57;;;;;;;17.65;100.00;101009.13;5008960;28;20406;-79
2023/06/20 05:09:43;;;;;;;21.55;14.77;;;;;;;17.88;100.00;101005.25;5022963;28;20061;-79
2023/06/20 05:12:09;;;;;;;23.77;15.87;;;;;;;17.99;100.00;100991.16;4997860;28;20033;-79
2023/06/20 05:14:35;;;;;;;19.10;14.52;;;;;;;18.06;100.00;100964.97;5017875;28;20037;-78
2023/06/20 05:17:00;;;;;;;26.27;16.50;;;;;;;18.25;100.00;100957.91;5012272;28;20045;-79
2023/06/20 05:19:25;;;;;;;20.27;15.27;;;;;;;18.37;100.00;100963.53;5028222;28;20036;-80
2023/06/20 05:21:51;;;;;;;22.73;14.27;;;;;;;18.30;100.00;100944.59;5012372;28;20033;-79
2023/06/20 05:24:16;;;;;;;22.53;15.20;;;;;;;18.47;100.00;100950.44;5019846;28;20032;-80
2023/06/20 05:26:41;;;;;;;23.07;14.80;;;;;;;18.63;100.00;100935.63;5039362;28;20049;-79
2023/06/20 05:29:07;;;;;;;24.53;16.07;;;;;;;18.80;100.00;100940.59;5009897;28;20183;-80
2023/06/20 05:31:32;;;;;;;17.27;12.00;;;;;;;18.96;100.00;100921.22;5015699;28;20041;-79
2023/06/20 05:33:58;;;;;;;18.57;13.07;;;;;;;18.89;100.00;100887.94;5017373;28;20025;-78
2023/06/20 05:36:23;;;;;;;17.95;13.57;;;;;;;19.14;100.00;100880.75;4993335;28;20291;-79
2023/06/20 05:38:49;;;;;;;16.25;12.65;;;;;;;19.24;100.00;100869.47;5025704;28;20064;-79
2023/06/20 05:41:15;;;;;;;23.83;14.80;;;;;;;19.39;100.00;100844.81;5000555;28;20513;-79
2023/06/20 05:43:40;;;;;;;;;;;;;;;19.60;100.00;100836.34;5011469;28;20029;-78
2023/06/20 05:46:06;;;;;;;18.80;13.07;;;;;;;19.88;100.00;100818.00;5015306;22;20440;-88
2023/06/20 05:48:32;;;;;;;19.07;13.73;;;;;;;20.22;100.00;100816.63;4982229;28;20551;-88
2023/06/20 05:50:58;;;;;;;;;;;;;;;20.99;100.00;100773.56;4991195;28;20046;-88
2023/06/20 05:53:24;;;;;;;19.08;13.45;;;;;;;21.50;100.00;100689.88;4987787;28;19928;-88
2023/06/20 05:55:52;;;;;;;18.73;14.27;;;;;;;19.99;100.00;100535.47;4977602;28;20054;-88
2023/06/20 05:58:18;;;;;;;19.60;13.77;;;;;;;19.79;100.00;100685.56;4987906;28;20064;-87
2023/06/20 06:00:44;;;;;;;;;;;;;;;20.01;100.00;100786.19;4994474;28;20519;-87
2023/06/20 06:03:10;;;;;;;24.30;15.38;;;;;;;19.97;100.00;100759.75;5004052;28;19992;-91
2023/06/20 06:05:35;;;;;;;18.98;13.07;;;;;;;21.01;100.00;100771.44;4980066;28;20053;-88
2023/06/20 06:08:00;;;;;;;16.50;13.33;;;;;;;21.59;100.00;100679.50;4982857;28;20031;-84
2023/06/20 06:10:26;;;;;;;18.33;13.20;;;;;;;22.11;100.00;100604.22;4990494;28;20038;-85
2023/06/20 06:12:51;;;;;;;19.60;13.10;;;;;;;21.50;100.00;100617.38;4974090;28;20061;-84
2023/06/20 06:15:16;;;;;;;20.57;14.53;;;;;;;21.87;100.00;100523.84;4977716;28;20037;-84
2023/06/20 06:17:43;;;;;;;17.57;13.60;;;;;;;21.89;100.00;100562.44;4976638;28;20030;-86
2023/06/20 06:20:12;;;;;;;21.15;14.85;;;;;;;21.95;100.00;100438.38;5001674;28;20038;-85
2023/06/20 06:22:38;;;;;;;22.25;15.73;;;;;;;21.17;100.00;100389.09;5009470;28;20053;-84
2023/06/20 06:25:07;;;;;;;17.33;13.48;;;;;;;22.54;100.00;100654.53;4992480;28;20517;-85
2023/06/20 06:27:34;;;;;;;15.73;11.52;;;;;;;23.82;100.00;100443.16;4986901;28;20041;-88
2023/06/20 06:29:59;;;;;;;16.40;11.70;;;;;;;24.29;100.00;100283.47;5008157;28;20783;-88
2023/06/20 06:32:27;;;;;;;17.88;12.07;;;;;;;24.15;100.00;100193.94;4993220;28;20030;-88
2023/06/20 06:34:53;;;;;;;17.13;11.30;;;;;;;24.33;100.00;100086.28;5031419;23;20124;-75
2023/06/20 06:37:20;;;;;;;21.30;13.73;;;;;;;23.96;100.00;100122.69;4988464;28;20100;-75
2023/06/20 06:39:46;;;;;;;18.35;11.10;;;;;;;24.33;100.00;100078.09;5005950;28;20113;-75
2023/06/20 06:42:11;;;;;;;23.63;12.52;;;;;;;24.41;99.71;100144.94;5005713;28;20434;-75
2023/06/20 06:44:38;;;;;;;20.00;12.95;;;;;;;23.84;99.07;100083.94;4985229;28;20034;-75
2023/06/20 06:47:03;;;;;;;17.77;13.10;;;;;;;22.92;100.00;100249.34;4988656;28;20044;-73
2023/06/20 06:49:31;;;;;;;17.00;10.90;;;;;;;22.08;100.00;100419.03;5008330;28;20132;-73
2023/06/20 06:51:56;;;;;;;15.85;11.02;;;;;;;23.14;100.00;100593.25;5005953;28;20026;-73
2023/06/20 06:54:22;;;;;;;14.38;9.88;;;;;;;24.00;100.00;100611.84;5005708;28;20128;-73
2023/06/20 06:56:47;;;;;;;14.95;12.30;;;;;;;25.18;100.00;100438.16;5005278;28;20033;-73
2023/06/20 06:59:13;;;;;;;14.75;11.30;;;;;;;25.69;94.60;100260.59;4995790;28;20033;-73
2023/06/20 07:01:38;;;;;;;17.50;10.90;;;;;;;25.03;93.53;100130.31;4988201;28;20546;-74
2023/06/20 07:04:04;;;;;;;17.23;11.63;;;;;;;24.20;93.51;100064.97;4988019;28;20281;-73
2023/06/20 07:06:30;;;;;;;17.70;11.88;;;;;;;23.54;100.00;100385.09;4968669;28;20125;-74
2023/06/20 07:08:55;;;;;;;17.60;10.95;;;;;;;22.76;100.00;100385.25;5003840;28;20064;-73
2023/06/20 07:11:21;;;;;;;15.93;11.33;;;;;;;22.38;100.00;100288.16;4990692;28;20033;-73
2023/06/20 07:13:46;;;;;;;13.35;9.75;;;;;;;21.93;100.00;100561.72;4987685;28;20037;-75
2023/06/20 07:16:11;;;;;;;16.42;12.73;;;;;;;21.82;100.00;100580.78;5005386;28;20033;-75
2023/06/20 07:18:37;;;;;;;18.60;14.47;;;;;;;20.96;100.00;100733.31;5005602;28;20091;-75
2023/06/20 07:21:03;;;;;;;22.75;14.13;;;;;;;20.85;100.00;100848.06;4988082;28;20029;-75
2023/06/20 07:23:29;;;;;;;18.70;13.30;;;;;;;21.04;100.00;100955.53;5005550;28;20714;-75
2023/06/20 07:25:54;;;;;;;16.43;13.20;;;;;;;21.48;100.00;100885.66;5005100;28;20037;-75
2023/06/20 07:28:19;;;;;;;16.03;12.53;;;;;;;21.72;100.00;100877.56;5021482;28;20809;-75
2023/06/20 07:30:45;;;;;;;13.23;9.83;;;;;;;22.30;100.00;100873.28;5011129;28;20034;-75
2023/06/20 07:33:10;;;;;;;15.07;11.60;;;;;;;22.82;100.00;100736.41;5009381;28;20026;-75
2023/06/20 07:35:36;;;;;;;14.43;11.87;;;;;;;21.82;100.00;100481.09;4991732;28;20591;-75
2023/06/20 07:38:01;;;;;;;15.10;10.63;;;;;;;22.28;100.00;100728.56;5009160;28;20044;-75
2023/06/20 07:40:26;;;;;;;14.40;9.63;;;;;;;23.16;100.00;100749.03;4980653;28;20030;-75
2023/06/20 07:42:52;;;;;;;13.70;10.03;;;;;;;23.67;100.00;100562.88;4991587;28;20136;-75
2023/06/20 07:45:17;;;;;;;13.80;11.70;;;;;;;23.49;100.00;100337.91;5013564;28;20033;-75
2023/06/20 07:47:42;;;;;;;14.27;10.30;;;;;;;24.23;100.00;100451.69;5003285;28;20116;-76
2023/06/20 07:50:09;;;;;;;12.37;9.77;;;;;;;24.79;97.45;100340.19;5001034;28;20026;-75
2023/06/20 07:52:35;;;;;;;;;;;;;;;24.88;94.56;100238.69;5009494;28;20288;-75
2023/06/20 07:55:03;;;;;;;15.75;10.60;;;;;;;25.28;91.75;100213.34;5008563;28;19948;-75
2023/06/20 07:57:28;;;;;;;15.57;11.07;;;;;;;24.46;91.18;100062.28;5009094;28;20034;-75
2023/06/20 07:59:53;;;;;;;12.85;9.45;;;;;;;24.78;92.48;100278.50;5008008;28;20044;-75
2023/06/20 08:02:19;;;;;;;13.38;10.25;;;;;;;24.00;93.53;100251.13;4991391;28;20046;-75
2023/06/20 08:04:44;;;;;;;12.37;10.43;;;;;;;24.32;92.49;100275.56;5017080;28;20250;-76
2023/06/20 08:07:10;;;;;;;18.77;11.40;;;;;;;24.90;91.46;100324.69;5011048;28;20067;-76
2023/06/20 08:09:35;;;;;;;15.23;10.93;;;;;;;24.04;90.77;100134.97;5028758;28;20741;-73
2023/06/20 08:12:00;;;;;;;21.57;10.77;;;;;;;23.25;95.99;100296.53;4991733;28;20085;-73
2023/06/20 08:14:25;;;;;;;15.23;12.27;;;;;;;22.62;100.00;100451.19;4990939;28;20287;-75
2023/06/20 08:16:51;;;;;;;21.73;12.53;;;;;;;22.49;100.00;100422.41;4990875;28;20383;-75
2023/06/20 08:19:16;;;;;;;12.53;10.90;;;;;;;22.96;100.00;100492.75;5012850;28;20026;-75
2023/06/20 08:21:42;;;;;;;16.13;10.60;;;;;;;22.52;100.00;100677.63;4992149;28;20037;-75
2023/06/20 08:24:07;;;;;;;13.37;9.43;;;;;;;23.72;100.00;100628.38;4990257;28;20052;-76
2023/06/20 08:26:32;;;;;;;15.87;11.30;;;;;;;24.43;98.51;100536.44;5015086;28;20065;-75
2023/06/20 08:28:57;;;;;;;13.67;9.23;;;;;;;24.97;91.70;100292.47;4992976;28;20026;-75
2023/06/20 08:31:36;;;;;;;9.67;8.17;;;;;;;25.56;88.58;100266.63;4991048;28;20045;-75
2023/06/20 08:34:02;;;;;;;11.05;8.60;;;;;;;25.59;85.86;100106.72;5012731;28;20076;-73
2023/06/20 08:36:28;;;;;;;10.88;8.93;;;;;;;25.72;83.56;100039.72;4990499;28;20029;-75
2023/06/20 08:38:53;;;;;;;12.45;8.80;;;;;;;24.85;83.75;99924.19;4987617;28;20844;-73
2023/06/20 08:41:24;;;;;;;9.30;7.67;;;;;;;25.56;84.66;100175.63;5008181;28;20037;-73
2023/06/20 08:43:50;;;;;;;12.18;7.35;;;;;;;26.18;82.98;100184.50;4990375;28;20061;-73
2023/06/20 08:46:15;;;;;;;11.32;7.22;;;;;;;26.35;79.83;99993.41;4990253;28;20025;-75
2023/06/20 08:48:41;;;;;;;8.95;7.45;;;;;;;26.26;79.88;100052.59;5008015;28;20038;-75
2023/06/20 08:51:07;;;;;;;8.25;6.35;;;;;;;26.86;78.52;100086.09;5009949;28;20653;-74
2023/06/20 08:53:34;;;;;;;7.57;6.05;;;;;;;27.69;73.84;99922.41;4990519;28;20052;-73
2023/06/20 08:56:01;;;;;;;6.93;6.20;;;;;;;25.73;72.42;99432.63;5023705;28;20036;-73
2023/06/20 08:58:26;;;;;;;12.30;7.10;;;;;;;26.32;72.43;99643.78;5007963;28;20030;-73
2023/06/20 09:00:52;;;;;;;9.15;6.53;;;;;;;26.41;73.03;99769.78;4990302;28;20399;-73
2023/06/20 09:03:17;;;;;;;9.10;6.25;;;;;;;26.78;71.51;99705.31;4990291;28;20026;-73
2023/06/20 09:05:45;;;;;;;10.82;6.53;;;;;;;25.78;72.74;99647.66;5009710;28;20049;-73
2023/06/20 09:08:13;;;;;;;7.53;5.88;;;;;;;26.30;71.92;99774.59;5007652;28;20037;-73
2023/06/20 09:10:40;;;;;;;6.35;5.72;;;;;;;26.72;71.76;99874.31;5007898;28;20487;-73
2023/06/20 09:13:06;;;;;;;9.57;5.88;;;;;;;27.15;68.72;99693.53;4997997;28;20037;-73
2023/06/20 09:15:33;;;;;;;8.68;5.53;;;;;;;26.90;69.38;99736.63;4990042;28;20272;-73
2023/06/20 09:18:00;;;;;;;7.25;5.53;;;;;;;27.34;67.54;99699.81;5007595;28;20128;-74
2023/06/20 09:20:30;;;;;;;7.00;4.80;;;;;;;27.73;67.19;99725.22;4990112;28;20037;-73
2023/06/20 09:22:56;;;;;;;7.60;5.05;;;;;;;27.07;64.95;99369.06;5007218;28;20037;-73
2023/06/20 09:25:23;;;;;;;8.60;4.85;;;;;;;27.03;66.05;99548.81;4977281;28;20036;-73
2023/06/20 09:27:50;;;;;;;5.97;5.38;;;;;;;27.18;64.79;99449.09;5018559;28;20084;-73
2023/06/20 09:30:15;;;;;;;7.30;5.00;;;;;;;27.17;66.58;99648.28;5014291;28;20631;-73
2023/06/20 09:32:42;;;;;;;5.35;4.85;;;;;;;26.57;66.14;99433.81;5016187;28;20038;-74
2023/06/20 09:35:09;;;;;;;10.65;5.55;;;;;;;26.71;67.88;99746.75;5014433;28;20037;-74
2023/06/20 09:37:45;;;;;;;6.55;5.30;;;;;;;26.57;67.92;99716.53;4994741;28;20069;-73
2023/06/20 09:40:28;;;;;;;5.40;4.75;;;;;;;26.91;67.06;99719.09;5020180;28;20505;-73
2023/06/20 09:42:56;;;;;;;9.27;5.18;;;;;;;27.28;67.33;99829.81;4984077;28;20046;-74
2023/06/20 09:45:22;;;;;;;8.65;6.43;;;;;;;26.07;68.33;99568.34;5015981;28;20014;-73
2023/06/20 09:47:48;;;;;;;7.93;6.68;;;;;;;25.94;69.46;99668.31;5017273;28;20120;-74
2023/06/20 09:50:16;;;;;;;;;;;;;;;25.81;70.68;99805.66;4987211;28;20134;-73
2023/06/20 09:52:53;;;;;;;6.93;5.65;;;;;;;25.92;71.51;99896.63;5015763;28;19916;-74
2023/06/20 09:55:20;;;;;;;6.07;5.10;;;;;;;25.75;70.01;99706.47;4996032;28;20536;-74
2023/06/20 09:57:58;;;;;;;7.47;5.60;;;;;;;26.09;71.28;99930.69;5014892;28;20148;-74
2023/06/20 10:00:26;;;;;;;8.55;5.40;;;;;;;26.39;68.60;99717.31;4981122;28;20036;-74
2023/06/20 10:02:52;;;;;;;6.78;5.75;;;;;;;26.87;68.80;99885.06;4999092;28;20029;-74
2023/06/20 10:05:19;;;;;;;;;;;;;;;27.32;67.77;99866.47;5017820;28;20120;-74
2023/06/20 10:07:46;;;;;;;8.88;5.10;;;;;;;28.02;65.31;99815.50;4993821;28;19965;-74
2023/06/20 10:10:13;;;;;;;6.38;5.72;;;;;;;27.94;63.38;99577.56;5017638;28;20041;-74
2023/06/20 10:12:40;;;;;;;5.93;5.22;;;;;;;28.11;61.95;99457.03;5013358;28;20048;-74
2023/06/20 10:15:07;;;;;;;7.30;4.65;;;;;;;28.17;62.01;99526.31;5001429;28;20029;-74
2023/06/20 10:17:38;;;;;;;7.57;5.30;;;;;;;29.31;60.39;99707.38;5015028;28;20033;-74
2023/06/20 10:20:08;;;;;;;6.03;4.95;;;;;;;29.56;59.43;99628.13;5006495;28;20038;-74
2023/06/20 10:22:38;;;;;;;8.52;5.20;;;;;;;29.38;57.79;99358.63;4989827;28;20030;-74
2023/06/20 10:25:15;;;;;;;9.32;5.53;;;;;;;27.71;58.81;99020.91;5012048;28;20713;-73
2023/06/20 10:27:42;;;;;;;9.77;5.32;;;;;;;28.55;57.88;99229.53;5006106;28;20052;-74
2023/06/20 10:30:10;;;;;;;10.45;5.20;;;;;;;28.42;58.72;99324.53;5008104;28;20487;-73
2023/06/20 10:32:57;;;;;;;14.13;5.68;;;;;;;28.39;59.94;99473.38;4988526;28;20045;-73
2023/06/20 10:35:23;;;;;;;8.55;5.50;;;;;;;28.64;57.88;99288.00;5014449;28;20085;-73
2023/06/20 10:37:48;;;;;;;5.53;5.03;;;;;;;29.14;57.62;99457.19;4992654;28;20033;-74
2023/06/20 10:40:32;;;;;;;;;;;;;;;28.61;58.36;99410.25;5017536;28;20029;-74
2023/06/20 10:42:57;;;;;;;5.93;5.07;;;;;;;29.31;57.01;99426.22;4994201;28;20422;-74
2023/06/20 10:45:29;;;;;;;6.47;4.80;;;;;;;29.13;56.27;99266.00;5009483;28;20017;-74
2023/06/20 10:47:56;;;;;;;6.05;4.68;;;;;;;29.61;54.50;99218.25;5011193;28;20522;-74
2023/06/20 10:50:22;;;;;;;5.25;4.55;;;;;;;29.94;51.45;98975.63;5018761;28;20037;-74
2023/06/20 10:52:48;;;;;;;6.15;4.07;;;;;;;30.05;50.17;98767.75;5013800;28;20483;-73
2023/06/20 10:55:13;;;;;;;;;;;;;;;30.01;51.03;98921.69;4982125;28;20372;-74
2023/06/20 10:57:49;;;;;;;6.55;4.53;;;;;;;30.24;50.41;98935.09;4997295;28;20066;-74
2023/06/20 11:00:17;;;;;;;6.03;4.65;;;;;;;29.73;50.89;98844.41;4997519;28;20068;-73
2023/06/20 11:02:44;;;;;;;5.20;4.70;;;;;;;30.28;50.92;99065.44;5015212;28;20061;-74
2023/06/20 11:05:10;;;;;;;5.90;4.40;;;;;;;30.49;49.94;98978.13;5020045;28;20037;-74
2023/06/20 11:07:59;;;;;;;;;;;;;;;30.18;48.91;98761.16;5001795;28;20029;-74
2023/06/20 11:10:33;;;;;;;6.28;4.50;;;;;;;31.44;48.55;99131.88;5008108;28;20374;-73
2023/06/20 11:13:02;;;;;;;6.55;4.35;;;;;;;30.78;48.01;98783.56;5013895;28;20315;-74
2023/06/20 11:15:29;;;;;;;4.95;4.25;;;;;;;31.67;47.34;99044.00;5008459;28;20479;-74